Essex Junction, Vermont
Current Conditions -  °F | °C
As of 1:31 AM on Saturday 29 Nov 2014 (Local Time) from KBTV Reporting Station
Overcast Overcast  
Wind Chill: 20°   Ceiling: 3400
Heat Index: 20°   Visibility: 10mi
Dew Point: 13°   Wind: 0mph
Humidity: 74%   Direction: NA
Pressure: 30.21"   Gusts: NA
Location:  44.49°N, 73.11°W
Report Text: KBTV 290631Z AUTO 00000KT 10SM FEW027 OVC034 M07/M11 A3021 RMK AO2 T10671106
Loading
Personal Weather Stations






























Interactive Weather Map New forecast layout! Learn more

10-Day Weather Forecast

Advertisements
Track Severe Weather on mobile